M I D A S
Marine Information and Data Acquisition System
Tripno 435 of the Zeeleeuw from 2003-02-24 07:24:40 to 2003-02-24 15:38:59
Back to CruiseResearch ActivitiesStationsMapUnderway DataData graphs

EquipmentUnitsComment
TimeDGPSUTC
LatitudeDGPSDM.mWGS84
LongitudeDGPSDM.mWGS84
HeadingGyrodeg 
SOGDGPSknotsSpeed over ground
COGDGPSdegCourse over ground
DepthEcho soundermeters200 kHz
Missing or incorrect values are displayed as -999
Navigation data collected by the RV Zeeleeuw from 2003-02-24 07:24:40 to 2003-02-24 15:38:59
Time Latitude Longitude Heading SOG COG Depth
2003-02-24 07:25:43 51°13.593 2°56.105 115.1 0.1 217.7 -999
2003-02-24 07:26:43 51°13.607 2°56.051 116.6 3.8 293.3 -999
2003-02-24 07:27:43 51°13.644 2°55.935 122.7 5.2 298.8 -999
2003-02-24 07:28:43 51°13.677 2°55.822 112.8 4.4 292.6 -999
2003-02-24 07:29:43 51°13.692 2°55.739 94.1 2 279.6 -999
2003-02-24 07:30:43 51°13.702 2°55.74 39.6 1.4 29.3 -999
2003-02-24 07:31:43 51°13.74 2°55.737 339.2 3.2 338.4 -999
2003-02-24 07:32:43 51°13.809 2°55.659 329.1 6.1 325.1 -999
2003-02-24 07:33:43 51°13.91 2°55.57 341 7.5 335.9 -999
2003-02-24 07:34:43 51°14.03 2°55.488 340.2 7.9 335.6 -999
2003-02-24 07:35:43 51°14.152 2°55.395 336.9 8.2 332.4 -999
2003-02-24 07:36:43 51°14.263 2°55.262 320.4 8.5 316.2 -999
2003-02-24 07:37:43 51°14.355 2°55.09 314.1 8.6 308.8 -999
2003-02-24 07:38:43 51°14.418 2°54.857 282.9 11 281.2 -999
2003-02-24 07:39:43 51°14.384 2°54.539 254.2 12.6 252.6 -999
2003-02-24 07:40:43 51°14.307 2°54.231 250.3 12.4 247.3 -999
2003-02-24 07:41:43 51°14.236 2°53.924 248.7 12.3 246.4 -999
2003-02-24 07:42:43 51°14.147 2°53.617 245.3 13.1 242.7 -999
2003-02-24 07:43:43 51°14.037 2°53.308 243.8 13.5 240.9 -999
2003-02-24 07:44:43 51°13.926 2°52.996 242.3 13.5 239.3 -999
2003-02-24 07:45:43 51°13.812 2°52.687 242.9 13.5 239.7 -999
2003-02-24 07:46:43 51°13.7 2°52.378 243 13.5 240.1 -999
2003-02-24 07:47:43 51°13.587 2°52.069 243 13.5 239.9 -999
2003-02-24 07:48:42 51°13.474 2°51.766 242.9 13.5 239.3 -999
2003-02-24 07:49:43 51°13.36 2°51.45 243.1 13.5 240.1 -999
2003-02-24 07:50:43 51°13.247 2°51.14 243.4 13.5 240.1 -999
2003-02-24 07:51:43 51°13.133 2°50.83 243.1 13.6 240 -999
2003-02-24 07:52:43 51°13.02 2°50.518 243.1 13.6 239.8 -999
2003-02-24 07:53:43 51°12.907 2°50.204 243.5 13.7 240.2 -999
2003-02-24 07:54:43 51°12.796 2°49.892 243 13.5 240.2 -999
2003-02-24 07:55:43 51°12.684 2°49.581 243.6 13.5 240.2 -999
2003-02-24 07:56:43 51°12.572 2°49.27 243.5 13.5 240.1 -999
2003-02-24 07:57:43 51°12.459 2°48.958 243.1 13.6 240 -999
2003-02-24 07:58:43 51°12.345 2°48.645 243.1 13.7 240 -999
2003-02-24 07:59:43 51°12.241 2°48.322 246.3 13.8 243.8 -999
2003-02-24 08:00:43 51°12.139 2°47.996 246.4 13.7 243.5 -999
2003-02-24 08:01:43 51°12.036 2°47.67 246.5 13.8 243.2 -999
2003-02-24 08:02:42 51°11.934 2°47.349 246.3 13.8 243.4 -999
2003-02-24 08:03:41 51°11.834 2°47.028 246.2 13.8 243.4 -999
2003-02-24 08:04:40 51°11.731 2°46.706 246.1 13.8 243.3 -999
2003-02-24 08:05:40 51°11.632 2°46.376 249.5 13.8 246.6 -999
2003-02-24 08:06:40 51°11.55 2°46.035 251.4 13.8 248.8 -999
2003-02-24 08:07:40 51°11.469 2°45.694 251.4 13.8 249.1 -999
2003-02-24 08:08:40 51°11.384 2°45.356 250.4 13.8 248 -999
2003-02-24 08:09:39 51°11.299 2°45.022 250.6 13.9 248.2 -999
2003-02-24 08:10:40 51°11.212 2°44.677 250.5 13.8 248.2 -999
2003-02-24 08:11:40 51°11.124 2°44.337 250.2 13.8 247.6 -999
2003-02-24 08:12:40 51°11.038 2°43.996 250.6 13.9 247.9 -999
2003-02-24 08:13:40 51°10.951 2°43.656 250.6 13.8 248.1 -999
2003-02-24 08:14:40 51°10.865 2°43.316 250.4 13.8 247.9 -999
2003-02-24 08:15:40 51°10.778 2°42.977 250.2 13.9 247.7 -999
2003-02-24 08:16:40 51°10.692 2°42.638 250 13.8 247.8 -999
2003-02-24 08:17:40 51°10.605 2°42.299 250.1 13.8 247.5 -999
2003-02-24 08:18:40 51°10.518 2°41.961 250 13.8 247.7 -999
2003-02-24 08:19:40 51°10.432 2°41.62 250.3 13.9 248.3 -999
2003-02-24 08:20:40 51°10.346 2°41.277 250.3 13.9 248.2 -999
2003-02-24 08:21:40 51°10.259 2°40.934 250.5 14 248.6 -999
2003-02-24 08:22:40 51°10.173 2°40.589 250.4 14.1 248.4 -999
2003-02-24 08:23:40 51°10.087 2°40.242 250.2 14.1 248.1 -999
2003-02-24 08:24:40 51°10 2°39.895 250.7 14.1 248.5 -999
2003-02-24 08:25:40 51°9.914 2°39.546 252.5 14.1 250 -999
2003-02-24 08:26:40 51°9.834 2°39.194 252.5 14.2 250 -999
2003-02-24 08:27:40 51°9.753 2°38.843 252.2 14.1 249.9 -999
2003-02-24 08:28:40 51°9.672 2°38.493 252.3 14.1 249.9 -999
2003-02-24 08:29:40 51°9.593 2°38.143 254.1 14.1 251.6 -999
2003-02-24 08:30:40 51°9.521 2°37.788 254.4 14.1 251.9 -999
2003-02-24 08:31:40 51°9.447 2°37.432 254.3 14.2 251.9 -999
2003-02-24 08:32:40 51°9.374 2°37.076 254.2 14.2 251.5 -999
2003-02-24 08:33:40 51°9.301 2°36.719 254.2 14.2 251.9 -999
2003-02-24 08:34:40 51°9.23 2°36.379 254 13.2 252.1 -999
2003-02-24 08:35:40 51°9.163 2°36.044 254.3 13.3 252.5 -999
2003-02-24 08:36:40 51°9.1 2°35.721 253.5 11.3 252.1 -999
2003-02-24 08:37:40 51°9.049 2°35.491 258.1 8.4 254.8 -999
2003-02-24 08:38:40 51°9.037 2°35.31 262.8 5.8 263.3 -999
2003-02-24 08:39:40 51°9.025 2°35.178 263.4 4.6 263 -999
2003-02-24 08:40:40 51°9.026 2°35.065 276.2 4 276 -999
2003-02-24 08:41:40 51°9.033 2°35.019 286.6 0.6 300.5 -999
2003-02-24 08:42:40 51°9.041 2°35.002 292.7 0.9 308.7 -999
2003-02-24 08:43:40 51°9.051 2°34.982 291.2 1 310 -999
2003-02-24 08:44:40 51°9.063 2°34.959 282.3 1.1 305.7 -999
2003-02-24 08:45:40 51°9.073 2°34.934 273.3 1.1 301.5 -999
2003-02-24 08:46:40 51°9.081 2°34.909 266.5 1.1 296 -999
2003-02-24 08:47:40 51°9.088 2°34.884 261.3 1 292.8 -999
2003-02-24 08:48:40 51°9.094 2°34.859 256.6 1 289.7 -999
2003-02-24 08:49:40 51°9.097 2°34.816 263.9 2.6 269.7 -999
2003-02-24 08:50:40 51°9.113 2°34.721 302 4.2 297.5 -999
2003-02-24 08:51:40 51°9.165 2°34.649 343.3 4.1 334.1 -999
2003-02-24 08:52:40 51°9.227 2°34.642 22.3 3.6 10.6 -999
2003-02-24 08:53:40 51°9.279 2°34.691 58.2 3.7 44.5 -999
2003-02-24 08:54:40 51°9.311 2°34.774 77 3.6 65 -999
2003-02-24 08:55:40 51°9.33 2°34.858 82.7 3.4 71.6 -999
2003-02-24 08:56:40 51°9.349 2°34.943 78.3 3.4 67.9 -999
2003-02-24 08:57:40 51°9.369 2°35.025 79.1 3.4 67.9 -999
2003-02-24 08:58:40 51°9.388 2°35.108 81.2 3.4 70.5 -999
2003-02-24 08:59:40 51°9.41 2°35.192 77.2 3.4 66.6 -999
2003-02-24 09:00:40 51°9.434 2°35.274 76.3 3.4 65.1 -999
2003-02-24 09:01:40 51°9.456 2°35.358 80.6 3.4 69.8 -999
2003-02-24 09:02:40 51°9.472 2°35.442 84.5 3.4 73.6 -999
2003-02-24 09:03:40 51°9.491 2°35.526 76.3 3.3 66.5 -999
2003-02-24 09:04:40 51°9.518 2°35.604 71.8 3.4 59.9 -999
2003-02-24 09:05:40 51°9.546 2°35.681 71.5 3.4 59.3 -999
2003-02-24 09:06:40 51°9.574 2°35.758 74 3.3 61.5 -999
2003-02-24 09:07:40 51°9.598 2°35.837 79 3.3 66.7 -999
2003-02-24 09:08:40 51°9.62 2°35.916 76.5 3.3 64.8 -999
2003-02-24 09:09:40 51°9.645 2°35.993 73.8 3.3 62 -999
2003-02-24 09:10:40 51°9.67 2°36.071 75.4 3.3 62.9 -999
2003-02-24 09:11:40 51°9.69 2°36.15 81.1 3.2 69.3 -999
2003-02-24 09:12:40 51°9.71 2°36.228 78.3 3.2 67.6 -999
2003-02-24 09:13:40 51°9.735 2°36.305 73.3 3.3 61.8 -999
2003-02-24 09:14:40 51°9.757 2°36.383 78.8 3.2 66.8 -999
2003-02-24 09:15:40 51°9.775 2°36.461 83 3.1 72.6 -999
2003-02-24 09:16:40 51°9.794 2°36.538 77.3 3.2 66.3 -999
2003-02-24 09:17:40 51°9.816 2°36.615 76.6 3.2 65.6 -999
2003-02-24 09:18:40 51°9.836 2°36.691 81.1 3.1 69.6 -999
2003-02-24 09:19:40 51°9.854 2°36.768 81 3.1 69.7 -999
2003-02-24 09:20:40 51°9.871 2°36.846 82.1 3.1 71.6 -999
2003-02-24 09:21:40 51°9.877 2°36.925 98.4 3 91.3 -999
2003-02-24 09:22:40 51°9.871 2°36.982 109.5 1.8 102.4 -999
2003-02-24 09:23:40 51°9.865 2°37.019 114.5 1.2 107.5 -999
2003-02-24 09:24:40 51°9.86 2°37.047 115 1 104.1 -999
2003-02-24 09:25:40 51°9.857 2°37.07 114.6 1.1 105 -999
2003-02-24 09:26:40 51°9.84 2°37.114 136.3 2.5 134.2 -999
2003-02-24 09:27:40 51°9.794 2°37.139 173.5 3.2 177 -999
2003-02-24 09:28:40 51°9.738 2°37.112 209.8 3.7 211.6 -999
2003-02-24 09:29:40 51°9.701 2°37.035 246.7 3.8 245.4 -999
2003-02-24 09:30:40 51°9.69 2°36.94 272.9 3.6 268.1 -999
2003-02-24 09:31:40 51°9.695 2°36.844 283.4 3.6 277.5 -999
2003-02-24 09:32:40 51°9.709 2°36.752 293 3.6 287.4 -999
2003-02-24 09:33:40 51°9.729 2°36.66 295.5 3.7 290.2 -999
2003-02-24 09:34:40 51°9.748 2°36.567 293.2 3.7 288.2 -999
2003-02-24 09:35:40 51°9.766 2°36.473 289.8 3.8 285.2 -999
2003-02-24 09:36:40 51°9.784 2°36.378 292.9 3.8 287.8 -999
2003-02-24 09:37:40 51°9.808 2°36.285 302.3 3.8 294.9 -999
2003-02-24 09:38:40 51°9.836 2°36.195 301.2 3.8 295.4 -999
2003-02-24 09:39:40 51°9.861 2°36.104 296.6 3.8 292.5 -999
2003-02-24 09:40:40 51°9.882 2°36.011 291.1 3.7 288.2 -999
2003-02-24 09:41:40 51°9.899 2°35.916 289.2 3.7 286.3 -999
2003-02-24 09:42:40 51°9.919 2°35.821 294.1 3.8 290.2 -999
2003-02-24 09:43:40 51°9.946 2°35.732 305 3.7 298.6 -999
2003-02-24 09:44:40 51°9.98 2°35.651 312.8 3.6 306.2 -999
2003-02-24 09:45:40 51°10.017 2°35.577 317 3.5 309.8 -999
2003-02-24 09:46:40 51°10.058 2°35.506 321.4 3.7 314.2 -999
2003-02-24 09:47:40 51°10.105 2°35.44 332.4 3.8 322.6 -999
2003-02-24 09:48:40 51°10.159 2°35.395 352.1 3.6 339.7 -999
2003-02-24 09:49:40 51°10.217 2°35.381 12.9 3.5 359.4 -999
2003-02-24 09:50:40 51°10.272 2°35.394 25.9 3.3 12.9 -999
2003-02-24 09:51:40 51°10.325 2°35.418 30.8 3.2 18.2 -999
2003-02-24 09:52:40 51°10.374 2°35.449 35.9 3.2 23 -999
2003-02-24 09:53:40 51°10.422 2°35.485 39.7 3.2 27.1 -999
2003-02-24 09:54:40 51°10.467 2°35.526 48.3 3.1 34.5 -999
2003-02-24 09:55:40 51°10.498 2°35.572 66.1 2 48.4 -999
2003-02-24 09:56:40 51°10.514 2°35.604 74 1.3 51.6 -999
2003-02-24 09:57:40 51°10.526 2°35.627 78.6 0.9 49.6 -999
2003-02-24 09:58:40 51°10.536 2°35.644 80.9 0.9 50.8 -999
2003-02-24 09:59:40 51°10.591 2°35.774 62.4 9.2 55.7 -999
2003-02-24 10:00:40 51°10.709 2°36.033 58.2 13 51.9 -999
2003-02-24 10:01:40 51°10.846 2°36.309 58 13.3 51.5 -999
2003-02-24 10:02:40 51°10.984 2°36.587 58.1 13.4 52 -999
2003-02-24 10:03:40 51°11.123 2°36.866 58 13.4 51.8 -999
2003-02-24 10:04:40 51°11.264 2°37.14 56 13.4 49.7 -999
2003-02-24 10:05:40 51°11.407 2°37.412 55.2 13.4 49.7 -999
2003-02-24 10:06:40 51°11.549 2°37.686 56 13.4 50.6 -999
2003-02-24 10:07:40 51°11.689 2°37.961 56.5 13.3 51.6 -999
2003-02-24 10:08:40 51°11.832 2°38.233 55.8 13.3 50.9 -999
2003-02-24 10:09:40 51°11.971 2°38.503 55.8 13.2 50.4 -999
2003-02-24 10:10:40 51°12.111 2°38.771 56.4 13.1 51 -999
2003-02-24 10:11:40 51°12.249 2°39.037 56.1 13 50.1 -999
2003-02-24 10:12:40 51°12.389 2°39.3 55.3 13 49.3 -999
2003-02-24 10:13:40 51°12.53 2°39.561 55.2 12.9 49.5 -999
2003-02-24 10:14:40 51°12.67 2°39.82 55.2 12.9 49.3 -999
2003-02-24 10:15:40 51°12.808 2°40.08 54.6 12.9 49.7 -999
2003-02-24 10:16:40 51°12.947 2°40.34 55.1 12.7 49.8 -999
2003-02-24 10:17:40 51°13.091 2°40.592 50.6 12.9 45.1 -999
2003-02-24 10:18:40 51°13.242 2°40.835 50.8 13 44.9 -999
2003-02-24 10:19:40 51°13.395 2°41.078 51.4 13 45.2 -999
2003-02-24 10:20:40 51°13.548 2°41.322 51.3 13 44.8 -999
2003-02-24 10:21:40 51°13.702 2°41.562 51.1 12.9 44.5 -999
2003-02-24 10:22:40 51°13.821 2°41.749 53.3 7.5 44.8 -999
2003-02-24 10:23:40 51°13.884 2°41.845 53.3 4.2 41.5 -999
2003-02-24 10:24:40 51°13.929 2°41.902 51.1 3.1 36 -999
2003-02-24 10:25:40 51°13.97 2°41.941 44.7 2.8 26.2 -999
2003-02-24 10:26:40 51°13.993 2°41.945 44 0.9 323.7 -999
2003-02-24 10:27:40 51°14.004 2°41.933 49.7 0.8 324.5 -999
2003-02-24 10:28:40 51°14.014 2°41.922 52.3 0.7 317.5 -999
2003-02-24 10:29:40 51°14.022 2°41.909 53.6 0.7 311.1 -999
2003-02-24 10:30:40 51°14.028 2°41.895 53.8 0.7 307.4 -999
2003-02-24 10:31:40 51°14.034 2°41.881 53.9 0.7 303.8 -999
2003-02-24 10:32:40 51°14.051 2°41.899 69.1 2 53.8 -999
2003-02-24 10:33:40 51°14.063 2°41.963 87.9 2.9 84.5 -999
2003-02-24 10:34:40 51°14.052 2°42.043 111.1 3.2 116.2 -999
2003-02-24 10:35:40 51°14.009 2°42.099 143.7 3.6 156.3 -999
2003-02-24 10:36:40 51°13.949 2°42.106 173 3.8 188.1 -999
2003-02-24 10:37:40 51°13.887 2°42.065 200.9 4.2 212.2 -999
2003-02-24 10:38:40 51°13.834 2°41.992 214.4 4.2 223.6 -999
2003-02-24 10:39:40 51°13.785 2°41.912 219.2 4.2 227.6 -999
2003-02-24 10:40:40 51°13.739 2°41.831 217.8 4.1 226.7 -999
2003-02-24 10:41:40 51°13.691 2°41.754 215.1 4.1 224.9 -999
2003-02-24 10:42:40 51°13.643 2°41.674 219.7 4.3 227.1 -999
2003-02-24 10:43:40 51°13.595 2°41.583 230 4.6 232.9 -999
2003-02-24 10:44:40 51°13.555 2°41.479 244.5 4.6 242.3 -999
2003-02-24 10:45:40 51°13.527 2°41.366 260.9 4.5 253.5 -999
2003-02-24 10:46:40 51°13.514 2°41.251 274.2 4.4 263.3 -999
2003-02-24 10:47:40 51°13.508 2°41.136 277.4 4.3 266.2 -999
2003-02-24 10:48:40 51°13.503 2°41.021 274.9 4.4 265.1 -999
2003-02-24 10:49:40 51°13.497 2°40.906 277.2 4.4 266.1 -999
2003-02-24 10:50:40 51°13.5 2°40.792 292.5 4.2 276.8 -999
2003-02-24 10:51:40 51°13.516 2°40.686 306.7 4.1 288.4 -999
2003-02-24 10:52:40 51°13.543 2°40.589 316 4 297.4 -999
2003-02-24 10:53:40 51°13.573 2°40.496 313.8 4 295.9 -999
2003-02-24 10:54:40 51°13.599 2°40.397 309.1 4.1 291.8 -999
2003-02-24 10:55:40 51°13.629 2°40.301 322 4 301.1 -999
2003-02-24 10:56:40 51°13.668 2°40.221 336.7 3.7 312.7 -999
2003-02-24 10:57:40 51°13.72 2°40.16 354.1 4 331.4 -999
2003-02-24 10:58:40 51°13.781 2°40.129 13.1 3.8 350.6 -999
2003-02-24 10:59:40 51°13.839 2°40.13 31 3.2 8.7 -999
2003-02-24 11:00:40 51°13.886 2°40.157 48 3 28.9 -999
2003-02-24 11:01:40 51°13.922 2°40.209 65.2 3.1 52.9 -999
2003-02-24 11:02:40 51°13.942 2°40.29 82.1 3.2 77.1 -999
2003-02-24 11:03:40 51°13.947 2°40.367 88.9 2.8 87.7 -999
2003-02-24 11:04:40 51°13.947 2°40.442 90.9 2.8 91.4 -999
2003-02-24 11:05:40 51°13.938 2°40.517 104 2.9 107.9 -999
2003-02-24 11:06:40 51°13.908 2°40.561 139.1 2.4 161 -999
2003-02-24 11:07:40 51°13.869 2°40.565 152.9 2.3 184.6 -999
2003-02-24 11:08:40 51°13.834 2°40.555 153.8 2.1 192.4 -999
2003-02-24 11:09:40 51°13.802 2°40.542 151 1.9 196.7 -999
2003-02-24 11:10:40 51°13.771 2°40.53 152.8 2.2 188.1 -999
2003-02-24 11:11:40 51°13.714 2°40.521 175.6 4.2 190.7 -999
2003-02-24 11:12:40 51°13.653 2°40.455 229.3 4.4 232.8 -999
2003-02-24 11:13:40 51°13.633 2°40.351 276.5 4 264.4 -999
2003-02-24 11:14:40 51°13.643 2°40.256 317.1 3.4 290.3 -999
2003-02-24 11:15:40 51°13.671 2°40.19 354.3 2.7 314.9 -999
2003-02-24 11:16:40 51°13.714 2°40.169 31.1 2.8 0.7 -999
2003-02-24 11:17:40 51°13.753 2°40.194 58.9 2.3 38.6 -999
2003-02-24 11:18:40 51°13.77 2°40.245 77.7 2.3 70.1 -999
2003-02-24 11:19:40 51°13.779 2°40.302 83.9 2.2 81.7 -999
2003-02-24 11:20:40 51°13.785 2°40.357 80 2.1 76.8 -999
2003-02-24 11:21:40 51°13.796 2°40.41 73.4 2.1 66.8 -999
2003-02-24 11:22:40 51°13.813 2°40.459 66.8 2.2 56.9 -999
2003-02-24 11:23:40 51°13.833 2°40.507 69.4 2.2 58.6 -999
2003-02-24 11:24:40 51°13.847 2°40.559 77.8 2.1 72.2 -999
2003-02-24 11:25:40 51°13.851 2°40.615 89.1 2.1 91.3 -999
2003-02-24 11:26:40 51°13.846 2°40.672 94.4 2.2 100.8 -999
2003-02-24 11:27:40 51°13.836 2°40.729 93.6 2.2 101.5 -999
2003-02-24 11:28:40 51°13.831 2°40.787 88.3 2.2 94.1 -999
2003-02-24 11:29:40 51°13.833 2°40.845 81.3 2.2 83.1 -999
2003-02-24 11:30:40 51°13.839 2°40.898 79.5 2 78.4 -999
2003-02-24 11:31:40 51°13.844 2°40.948 82 2 82.3 -999
2003-02-24 11:32:40 51°13.846 2°41.001 84.9 2 88.4 -999
2003-02-24 11:33:40 51°13.847 2°41.052 82.9 1.9 86 -999
2003-02-24 11:34:40 51°13.853 2°41.101 74 1.9 71.8 -999
2003-02-24 11:35:40 51°13.867 2°41.148 71.2 1.9 64.9 -999
2003-02-24 11:36:40 51°13.878 2°41.195 75.8 2 71.9 -999
2003-02-24 11:37:40 51°13.885 2°41.246 80.8 2 81.6 -999
2003-02-24 11:38:40 51°13.886 2°41.298 86.6 2 91.7 -999
2003-02-24 11:39:40 51°13.882 2°41.352 91.5 2.1 101 -999
2003-02-24 11:40:40 51°13.876 2°41.405 88.2 2 97.5 -999
2003-02-24 11:41:40 51°13.871 2°41.459 95 2.1 105.8 -999
2003-02-24 11:42:40 51°13.851 2°41.51 116 2.5 135.5 -999
2003-02-24 11:43:40 51°13.815 2°41.536 136.7 2.3 167.6 -999
2003-02-24 11:44:40 51°13.78 2°41.537 144.8 2 186.7 -999
2003-02-24 11:45:40 51°13.747 2°41.522 154.5 2 200 -999
2003-02-24 11:46:40 51°13.71 2°41.499 173.4 3 199 -999
2003-02-24 11:47:40 51°13.657 2°41.419 249.5 5.4 243.1 -999
2003-02-24 11:48:40 51°13.669 2°41.282 333.5 5.2 306 -999
2003-02-24 11:49:40 51°13.743 2°41.276 36.1 6.7 24.7 -999
2003-02-24 11:50:40 51°13.904 2°41.421 41.2 12.4 33 -999
2003-02-24 11:51:40 51°14.078 2°41.608 42 12.7 34 -999
2003-02-24 11:52:40 51°14.254 2°41.795 39.7 12.7 32.1 -999
2003-02-24 11:53:40 51°14.436 2°41.967 38.8 12.8 30.1 -999
2003-02-24 11:54:40 51°14.619 2°42.139 39.2 12.8 30.5 -999
2003-02-24 11:55:40 51°14.802 2°42.311 39.6 12.8 31.1 -999
2003-02-24 11:56:40 51°14.983 2°42.487 39.8 12.8 31.7 -999
2003-02-24 11:57:40 51°15.165 2°42.662 38.7 12.8 31 -999
2003-02-24 11:58:40 51°15.346 2°42.838 39.6 12.7 32 -999
2003-02-24 11:59:40 51°15.523 2°43.016 39.5 12.7 32.8 -999
2003-02-24 12:00:40 51°15.706 2°43.185 36.1 12.7 29.3 -999
2003-02-24 12:01:40 51°15.891 2°43.353 35.9 12.9 29.9 -999
2003-02-24 12:02:40 51°16.077 2°43.525 35.9 12.9 30 -999
2003-02-24 12:03:40 51°16.263 2°43.698 36.2 13 30.6 -999
2003-02-24 12:04:40 51°16.448 2°43.871 36.2 12.9 29.9 -999
2003-02-24 12:05:40 51°16.633 2°44.04 36 12.8 29.5 -999
2003-02-24 12:06:40 51°16.817 2°44.204 35.8 12.6 28.7 -999
2003-02-24 12:07:40 51°17 2°44.365 36.4 12.5 28.9 -999
2003-02-24 12:08:40 51°17.182 2°44.525 36.1 12.5 28.7 -999
2003-02-24 12:09:40 51°17.364 2°44.685 36.2 12.6 29 -999
2003-02-24 12:10:40 51°17.55 2°44.844 35.7 12.6 28.1 -999
2003-02-24 12:11:40 51°17.72 2°44.926 25.8 9.1 13.8 -999
2003-02-24 12:12:40 51°17.824 2°44.976 18 5.6 4.1 -999
2003-02-24 12:13:40 51°17.893 2°45 55.1 3.4 41.1 -999
2003-02-24 12:14:40 51°17.934 2°45.062 46.5 3.5 35.5 -999
2003-02-24 12:15:40 51°17.968 2°45.071 17.5 1.3 322.3 -999
2003-02-24 12:16:40 51°17.978 2°45.035 352.3 1.7 286.8 -999
2003-02-24 12:17:40 51°17.985 2°44.992 353.1 1.7 282 -999
2003-02-24 12:18:40 51°17.988 2°44.949 4.2 1.5 277.1 -999
2003-02-24 12:19:40 51°17.992 2°44.912 14.4 1.4 274.5 -999
2003-02-24 12:20:40 51°17.993 2°44.878 22.6 1.3 278.1 -999
2003-02-24 12:21:40 51°17.992 2°44.844 29.9 1.3 264.4 -999
2003-02-24 12:22:40 51°17.992 2°44.816 45 0.9 278.5 -999
2003-02-24 12:23:40 51°17.998 2°44.82 73.5 1.2 70.2 -999
2003-02-24 12:24:40 51°17.995 2°44.881 98.9 3.2 106.9 -999
2003-02-24 12:25:40 51°17.958 2°44.962 124.4 3.9 138.5 -999
2003-02-24 12:26:40 51°17.897 2°45.008 148.7 4.4 165.2 -999
2003-02-24 12:27:40 51°17.823 2°45.012 169.4 4.4 186.3 -999
2003-02-24 12:28:40 51°17.756 2°44.984 184.3 4.1 199.7 -999
2003-02-24 12:29:40 51°17.692 2°44.935 197.4 4.2 209.7 -999
2003-02-24 12:30:40 51°17.636 2°44.873 206.2 4.2 216.6 -999
2003-02-24 12:31:40 51°17.579 2°44.801 211.7 4.2 220.1 -999
2003-02-24 12:32:40 51°17.527 2°44.727 215.9 4.2 223.1 -999
2003-02-24 12:33:40 51°17.477 2°44.651 215.7 4.2 223 -999
2003-02-24 12:34:40 51°17.426 2°44.577 214.1 4.1 221.9 -999
2003-02-24 12:35:40 51°17.374 2°44.505 212.2 4.1 220.8 -999
2003-02-24 12:36:40 51°17.319 2°44.434 209.7 4.2 218 -999
2003-02-24 12:37:40 51°17.265 2°44.369 209 4.1 217.3 -999
2003-02-24 12:38:40 51°17.211 2°44.3 213.2 4.2 219.2 -999
2003-02-24 12:39:40 51°17.158 2°44.228 218.4 4.2 222.5 -999
2003-02-24 12:40:40 51°17.108 2°44.149 223 4.3 225 -999
2003-02-24 12:41:40 51°17.058 2°44.067 226.2 4.3 226.9 -999
2003-02-24 12:42:40 51°17.01 2°43.985 222 4.3 224.4 -999
2003-02-24 12:43:40 51°16.959 2°43.909 216 4.1 221.6 -999
2003-02-24 12:44:40 51°16.907 2°43.841 210.7 4 218.6 -999
2003-02-24 12:45:40 51°16.854 2°43.773 214.8 4.2 219.9 -999
2003-02-24 12:46:40 51°16.8 2°43.696 220.1 4.5 221.9 -999
2003-02-24 12:47:40 51°16.746 2°43.619 213.3 4.4 219.2 -999
2003-02-24 12:48:40 51°16.688 2°43.552 204.5 4.3 213.7 -999
2003-02-24 12:49:40 51°16.628 2°43.49 203.5 4.1 213.3 -999
2003-02-24 12:50:40 51°16.572 2°43.436 194 3.8 208.7 -999
2003-02-24 12:51:40 51°16.515 2°43.392 188.1 3.8 204.4 -999
2003-02-24 12:52:40 51°16.456 2°43.354 182.9 3.8 200.7 -999
2003-02-24 12:53:40 51°16.395 2°43.321 177.5 3.9 197 -999
2003-02-24 12:54:40 51°16.333 2°43.295 171.9 3.8 193.4 -999
2003-02-24 12:55:40 51°16.272 2°43.275 166.1 3.8 189.7 -999
2003-02-24 12:56:40 51°16.209 2°43.256 174.9 3.9 192.6 -999
2003-02-24 12:57:40 51°16.151 2°43.221 193.6 3.7 205.5 -999
2003-02-24 12:58:40 51°16.098 2°43.169 207.9 3.7 214.7 -999
2003-02-24 12:59:40 51°16.051 2°43.106 230.5 3.6 225.8 -999
2003-02-24 13:00:40 51°16.021 2°43.016 279.1 4.1 255.1 -999
2003-02-24 13:01:40 51°16.037 2°42.92 346.2 3.5 310.5 -999
2003-02-24 13:02:40 51°16.081 2°42.915 34 3 18.9 -999
2003-02-24 13:03:40 51°16.129 2°42.949 38.4 3.1 28 -999
2003-02-24 13:04:40 51°16.173 2°42.99 37.7 3.1 29 -999
2003-02-24 13:05:40 51°16.222 2°43.02 32 3.2 19.7 -999
2003-02-24 13:06:40 51°16.267 2°43.057 40.5 3 32.5 -999
2003-02-24 13:07:40 51°16.312 2°43.097 34.8 3.1 25.2 -999
2003-02-24 13:08:40 51°16.359 2°43.133 33.9 3.1 23.1 -999
2003-02-24 13:09:40 51°16.404 2°43.169 41 3 31.9 -999
2003-02-24 13:10:40 51°16.448 2°43.205 35.4 3 24.3 -999
2003-02-24 13:11:40 51°16.494 2°43.242 36.3 3.1 26.1 -999
2003-02-24 13:12:40 51°16.538 2°43.28 38.9 3 30.6 -999
2003-02-24 13:13:40 51°16.585 2°43.313 36.2 3.1 24.8 -999
2003-02-24 13:14:40 51°16.627 2°43.355 41.3 3 33.2 -999
2003-02-24 13:15:40 51°16.67 2°43.394 37.3 2.9 27.5 -999
2003-02-24 13:16:40 51°16.711 2°43.433 42.4 2.9 33.9 -999
2003-02-24 13:17:40 51°16.748 2°43.48 45.3 2.8 39.7 -999
2003-02-24 13:18:40 51°16.788 2°43.519 34 2.9 23.6 -999
2003-02-24 13:19:40 51°16.836 2°43.54 30.9 3 15.9 -999
2003-02-24 13:20:40 51°16.879 2°43.574 41.3 2.9 32.2 -999
2003-02-24 13:21:40 51°16.921 2°43.611 35.9 2.9 24.6 -999
2003-02-24 13:22:40 51°16.964 2°43.646 42.6 2.9 33.5 -999
2003-02-24 13:23:40 51°17.003 2°43.691 42 2.8 34 -999
2003-02-24 13:24:40 51°17.047 2°43.722 32.6 3 18.4 -999
2003-02-24 13:25:40 51°17.092 2°43.751 40.5 2.9 28.2 -999
2003-02-24 13:26:40 51°17.134 2°43.79 38.4 2.9 27.8 -999
2003-02-24 13:27:40 51°17.177 2°43.825 41.6 2.9 29.3 -999
2003-02-24 13:28:40 51°17.217 2°43.867 43.9 2.9 34.1 -999
2003-02-24 13:29:40 51°17.259 2°43.903 38 2.9 25.2 -999
2003-02-24 13:30:40 51°17.301 2°43.939 41.8 2.9 29.4 -999
2003-02-24 13:31:40 51°17.343 2°43.976 37.8 2.9 25.1 -999
2003-02-24 13:32:40 51°17.389 2°44.004 37 3 21.1 -999
2003-02-24 13:33:40 51°17.433 2°44.038 45.6 2.9 33.6 -999
2003-02-24 13:34:40 51°17.46 2°44.089 66.1 1.9 67.3 -999
2003-02-24 13:35:40 51°17.461 2°44.123 78.7 1.1 101.6 -999
2003-02-24 13:36:40 51°17.452 2°44.145 85.6 0.9 140.3 -999
2003-02-24 13:37:40 51°17.447 2°44.214 80.4 6.4 84.2 -999
2003-02-24 13:38:40 51°17.488 2°44.497 76.9 12.1 76 -999
2003-02-24 13:39:40 51°17.534 2°44.81 77.3 12.3 76.5 -999
2003-02-24 13:40:40 51°17.581 2°45.128 77.7 12.4 76.8 -999
2003-02-24 13:41:40 51°17.628 2°45.447 77.6 12.3 76.7 -999
2003-02-24 13:42:40 51°17.675 2°45.766 77.5 12.4 76.5 -999
2003-02-24 13:43:40 51°17.721 2°46.086 77.7 12.4 76.8 -999
2003-02-24 13:44:40 51°17.769 2°46.406 78.2 12.4 76.6 -999
2003-02-24 13:45:40 51°17.819 2°46.727 78.3 12.5 76.1 -999
2003-02-24 13:46:40 51°17.869 2°47.049 78.3 12.5 76 -999
2003-02-24 13:47:40 51°17.919 2°47.372 78.1 12.7 76 -999
2003-02-24 13:48:40 51°17.969 2°47.7 78.3 12.6 76.5 -999
2003-02-24 13:49:40 51°18.019 2°48.024 78.2 12.5 76.3 -999
2003-02-24 13:50:40 51°18.069 2°48.346 78.3 12.6 76 -999
2003-02-24 13:51:40 51°18.119 2°48.668 78.2 12.4 76 -999
2003-02-24 13:52:40 51°18.169 2°48.987 78 12.4 76 -999
2003-02-24 13:53:40 51°18.217 2°49.306 78.3 12.4 76.6 -999
2003-02-24 13:54:40 51°18.265 2°49.624 78.3 12.3 76.6 -999
2003-02-24 13:55:40 51°18.313 2°49.94 78.3 12.2 76.3 -999
2003-02-24 13:56:40 51°18.36 2°50.255 78.3 12.2 77 -999
2003-02-24 13:57:40 51°18.451 2°50.534 54.8 12 50.4 -999
2003-02-24 13:58:40 51°18.499 2°50.769 83.2 7.6 86.3 -999
2003-02-24 13:59:40 51°18.532 2°50.896 62.5 4 59.8 -999
2003-02-24 14:00:40 51°18.54 2°50.968 89.4 2.3 102.3 -999
2003-02-24 14:01:40 51°18.522 2°50.991 115.6 1.5 169.1 -999
2003-02-24 14:02:40 51°18.495 2°50.989 127.3 1.7 187.7 -999
2003-02-24 14:03:41 51°18.465 2°50.978 130.3 1.8 194.8 -999
2003-02-24 14:04:40 51°18.438 2°50.965 130.2 1.8 194.9 -999
2003-02-24 14:05:39 51°18.409 2°50.957 127.7 1.8 185 -999
2003-02-24 14:06:40 51°18.378 2°50.955 124.4 1.9 178.7 -999
2003-02-24 14:07:40 51°18.346 2°50.959 119.7 1.9 172.3 -999
2003-02-24 14:08:40 51°18.316 2°50.967 121.8 1.9 171.3 -999
2003-02-24 14:09:40 51°18.262 2°50.979 170.8 4.4 182.2 -999
2003-02-24 14:10:40 51°18.187 2°50.914 228.6 5.4 224.3 -999
2003-02-24 14:11:40 51°18.15 2°50.797 274.4 4.6 256.1 -999
2003-02-24 14:12:40 51°18.152 2°50.689 314 3.9 284.7 -999
2003-02-24 14:13:41 51°18.187 2°50.613 356.3 3.2 323.3 -999
2003-02-24 14:14:40 51°18.235 2°50.604 31.9 3.2 11.9 -999
2003-02-24 14:15:40 51°18.284 2°50.64 38.7 3.1 25.8 -999
2003-02-24 14:16:40 51°18.329 2°50.669 39.9 2.8 25 -999
2003-02-24 14:17:40 51°18.371 2°50.702 38.8 2.9 24.5 -999
2003-02-24 14:18:40 51°18.416 2°50.729 36.6 2.9 20.1 -999
2003-02-24 14:19:40 51°18.459 2°50.761 43.2 2.8 29.2 -999
2003-02-24 14:20:41 51°18.5 2°50.798 38.7 2.8 24.8 -999
2003-02-24 14:21:40 51°18.546 2°50.816 27.3 3 7.8 -999
2003-02-24 14:22:40 51°18.596 2°50.827 31.4 3 11.1 -999
2003-02-24 14:23:40 51°18.642 2°50.852 41 2.8 25.3 -999
2003-02-24 14:24:40 51°18.682 2°50.889 43.3 2.8 30.7 -999
2003-02-24 14:25:41 51°18.725 2°50.925 39.7 2.9 25.6 -999
2003-02-24 14:26:40 51°18.768 2°50.955 36.2 3 20.4 -999
2003-02-24 14:27:40 51°18.813 2°50.986 41.2 2.9 27.3 -999
2003-02-24 14:28:40 51°18.854 2°51.026 46.6 2.8 35.3 -999
2003-02-24 14:29:41 51°18.892 2°51.072 47.2 2.9 37.1 -999
2003-02-24 14:30:41 51°18.932 2°51.118 45.5 3 34.6 -999
2003-02-24 14:31:40 51°18.973 2°51.161 44.4 3 33.7 -999
2003-02-24 14:32:41 51°19.016 2°51.204 43.8 3 32.5 -999
2003-02-24 14:33:40 51°19.058 2°51.245 43.3 3 31.6 -999
2003-02-24 14:34:40 51°19.101 2°51.285 42.9 3 30.8 -999
2003-02-24 14:35:41 51°19.144 2°51.327 43.5 3 30.9 -999
2003-02-24 14:36:40 51°19.186 2°51.368 44.1 3 31.4 -999
2003-02-24 14:37:40 51°19.228 2°51.411 45.3 3 33 -999
2003-02-24 14:38:41 51°19.27 2°51.457 46.6 3 35.7 -999
2003-02-24 14:39:40 51°19.31 2°51.503 48 3 37.3 -999
2003-02-24 14:40:41 51°19.346 2°51.559 59.4 2.9 53 -999
2003-02-24 14:41:40 51°19.356 2°51.606 79.6 1.3 91.2 -999
2003-02-24 14:42:41 51°19.349 2°51.629 91.5 0.9 135.8 -999
2003-02-24 14:43:40 51°19.339 2°51.639 81.5 0.6 149.4 -999
2003-02-24 14:44:41 51°19.338 2°51.656 65.9 1.3 71.5 -999
2003-02-24 14:45:41 51°19.351 2°51.709 68.3 2.5 69 -999
2003-02-24 14:46:40 51°19.371 2°51.768 52 2.5 47.7 -999
2003-02-24 14:47:40 51°19.411 2°51.791 20.2 2.8 1.6 -999
2003-02-24 14:48:40 51°19.463 2°51.786 20.6 3.2 359 -999
2003-02-24 14:49:40 51°19.513 2°51.796 29.7 3 10.5 -999
2003-02-24 14:50:40 51°19.563 2°51.812 27.9 3.1 9.8 -999
2003-02-24 14:51:41 51°19.615 2°51.822 25.1 3.2 6 -999
2003-02-24 14:52:39 51°19.665 2°51.833 28.5 3.1 9.2 -999
2003-02-24 14:53:41 51°19.716 2°51.851 33.1 3 14.9 -999
2003-02-24 14:54:41 51°19.763 2°51.875 33.7 3 17.7 -999
2003-02-24 14:55:40 51°19.813 2°51.889 23.1 3.2 4 -999
2003-02-24 14:56:41 51°19.866 2°51.895 26.1 3.1 7 -999
2003-02-24 14:57:40 51°19.904 2°51.934 65.9 2.7 59.1 -999
2003-02-24 14:58:40 51°19.897 2°52.011 112.5 3.4 121.6 -999
2003-02-24 14:59:41 51°19.835 2°52.054 165.1 4.6 175.3 -999
2003-02-24 15:00:40 51°19.758 2°52.021 200.9 4.9 206.2 -999
2003-02-24 15:01:41 51°19.691 2°51.951 209 4.7 215.4 -999
2003-02-24 15:02:41 51°19.63 2°51.877 213.5 4.6 218.6 -999
2003-02-24 15:03:40 51°19.575 2°51.799 217 4.6 222 -999
2003-02-24 15:04:41 51°19.517 2°51.719 215.5 4.5 220.8 -999
2003-02-24 15:05:41 51°19.459 2°51.642 215.5 4.5 220.5 -999
2003-02-24 15:06:41 51°19.401 2°51.565 213 4.5 219 -999
2003-02-24 15:07:41 51°19.342 2°51.497 205.3 4.4 213.3 -999
2003-02-24 15:08:41 51°19.282 2°51.44 198.2 4 209.2 -999
2003-02-24 15:09:40 51°19.224 2°51.39 199.6 4.1 208.7 -999
2003-02-24 15:10:41 51°19.162 2°51.332 204.3 4.3 211.9 -999
2003-02-24 15:11:41 51°19.101 2°51.268 206.7 4.4 213.7 -999
2003-02-24 15:12:41 51°19.04 2°51.202 207.3 4.4 214 -999
2003-02-24 15:13:41 51°18.978 2°51.137 207.8 4.4 213.9 -999
2003-02-24 15:14:40 51°18.918 2°51.072 208.5 4.4 214.5 -999
2003-02-24 15:15:41 51°18.857 2°51 215.5 4.5 218.5 -999
2003-02-24 15:16:40 51°18.805 2°50.919 228.8 4.4 227.8 -999
2003-02-24 15:17:41 51°18.766 2°50.83 247.5 4 241.1 -999
2003-02-24 15:18:41 51°18.737 2°50.741 251.5 3.6 243.9 -999
2003-02-24 15:19:40 51°18.71 2°50.658 244.5 3.8 241 -999
2003-02-24 15:20:41 51°18.636 2°50.579 182.3 6.2 192.6 -999
2003-02-24 15:21:41 51°18.511 2°50.667 137.2 10 142.1 -999
2003-02-24 15:22:41 51°18.37 2°50.86 136.1 11.4 139 -999
2003-02-24 15:23:40 51°18.221 2°51.07 136.3 12.7 138.5 -999
2003-02-24 15:24:41 51°18.059 2°51.3 137.1 12.9 138.6 -999
2003-02-24 15:25:41 51°17.9 2°51.529 137.2 12.8 138.4 -999
2003-02-24 15:26:40 51°17.743 2°51.757 136.2 12.9 137.4 -999
2003-02-24 15:27:41 51°17.55 2°51.949 155.9 14.1 155.1 -999
2003-02-24 15:28:41 51°17.332 2°52.101 155.2 14.4 155.8 -999
2003-02-24 15:29:40 51°17.121 2°52.265 153.4 14.4 153.7 -999
2003-02-24 15:30:40 51°16.906 2°52.432 154.3 14.4 154.6 -999
2003-02-24 15:31:40 51°16.689 2°52.595 155.7 14.3 154.6 -999
2003-02-24 15:32:41 51°16.469 2°52.763 155.4 14.4 154.1 -999
2003-02-24 15:33:41 51°16.255 2°52.929 156 14.3 154.3 -999
2003-02-24 15:34:41 51°16.044 2°53.095 154.6 14 153 -999
2003-02-24 15:35:40 51°15.841 2°53.256 154.3 13.9 153.8 -999
2003-02-24 15:36:41 51°15.63 2°53.419 154.1 13.9 154.1 -999
2003-02-24 15:37:41 51°15.422 2°53.58 154 14 153.9 -999
2003-02-24 15:38:41 51°15.217 2°53.751 151.4 13.8 150.5 -999